Time;durP1;ratioP1;P1;durP2;ratioP2;P2;SDS_P1;SDS_P2;PMS_P1;PMS_P2;Temp;Humidity;BMP_temperature;BMP_pressure;BME280_temperature;BME280_humidity;BME280_pressure;Samples;Min_cycle;Max_cycle;Signal;HPM_P1;HPM_P2
2022/04/12 00:00:08;;;;;;;15.50;2.67;;;21.40;99.90;;;;;;5051790;28;20094;-72
2022/04/12 00:02:35;;;;;;;9.48;2.60;;;21.50;99.90;;;;;;5051816;28;20025;-72
2022/04/12 00:05:03;;;;;;;9.40;2.42;;;21.50;99.90;;;;;;5051753;28;20510;-73
2022/04/12 00:07:30;;;;;;;10.32;2.15;;;21.30;99.90;;;;;;5053047;28;20049;-73
2022/04/12 00:09:57;;;;;;;11.27;2.15;;;21.20;99.90;;;;;;5051577;28;20025;-72
2022/04/12 00:12:24;;;;;;;11.90;2.30;;;21.10;99.90;;;;;;5051544;28;20024;-73
2022/04/12 00:14:52;;;;;;;15.02;2.83;;;21.20;99.90;;;;;;5052908;28;20090;-72
2022/04/12 00:20:05;;;;;;;12.18;2.40;;;21.10;99.90;;;;;;5053110;28;20028;-72
2022/04/12 00:22:32;;;;;;;11.50;2.85;;;21.20;99.90;;;;;;5052677;28;20025;-72
2022/04/12 00:25:00;;;;;;;9.02;1.90;;;21.50;99.90;;;;;;5052736;28;20052;-73
2022/04/12 00:27:30;;;;;;;8.63;2.00;;;21.80;99.90;;;;;;5051724;28;20611;-73
2022/04/12 00:29:58;;;;;;;13.45;3.67;;;21.70;99.90;;;;;;5051221;28;20056;-72
2022/04/12 00:32:25;;;;;;;14.57;3.28;;;21.70;99.90;;;;;;5051281;28;20033;-73
2022/04/12 00:34:53;;;;;;;10.77;2.28;;;21.80;99.90;;;;;;5051093;28;20032;-72
2022/04/12 00:37:20;;;;;;;9.27;1.98;;;21.60;99.90;;;;;;5052542;28;20033;-74
2022/04/12 00:39:47;;;;;;;7.78;2.30;;;21.80;99.90;;;;;;5051336;28;20512;-73
2022/04/12 00:42:15;;;;;;;10.20;2.50;;;22.00;99.90;;;;;;5051537;28;20032;-72
2022/04/12 00:44:42;;;;;;;10.05;2.55;;;22.00;99.90;;;;;;5052495;28;20103;-74
2022/04/12 00:47:09;;;;;;;10.63;2.13;;;22.30;99.90;;;;;;5052148;28;20106;-73
2022/04/12 00:49:37;;;;;;;9.35;2.08;;;22.40;99.90;;;;;;5051038;28;20506;-72
2022/04/12 00:52:06;;;;;;;10.18;2.45;;;22.20;99.90;;;;;;5052270;28;20052;-73
2022/04/12 00:54:35;;;;;;;8.68;2.30;;;22.30;99.90;;;;;;5052256;28;20017;-73
2022/04/12 00:57:03;;;;;;;11.68;3.00;;;22.60;99.90;;;;;;5050940;28;20436;-73
2022/04/12 00:59:34;;;;;;;9.32;3.00;;;22.70;99.90;;;;;;5050913;28;20404;-72
2022/04/12 01:02:06;;;;;;;20.10;4.85;;;22.50;99.90;;;;;;5052178;28;20458;-73
2022/04/12 01:04:34;;;;;;;11.85;3.42;;;22.30;99.90;;;;;;5051999;28;20039;-73
2022/04/12 01:07:02;;;;;;;11.88;2.65;;;22.80;99.90;;;;;;5050906;28;20087;-73
2022/04/12 01:09:30;;;;;;;10.45;3.00;;;22.90;99.90;;;;;;5050860;28;20021;-72
2022/04/12 01:11:58;;;;;;;8.32;2.08;;;22.80;99.90;;;;;;5050811;28;20029;-73
2022/04/12 01:14:26;;;;;;;10.27;2.65;;;22.70;99.90;;;;;;5052050;28;20029;-73
2022/04/12 01:16:53;;;;;;;15.75;3.10;;;22.60;99.90;;;;;;5052077;28;20100;-73
2022/04/12 01:19:21;;;;;;;9.55;1.70;;;22.70;99.90;;;;;;5050740;28;20397;-73
2022/04/12 01:22:01;;;;;;;10.18;2.20;;;22.90;99.90;;;;;;5051043;28;20446;-74
2022/04/12 01:24:29;;;;;;;;;;;22.70;99.90;;;;;;5051193;28;20120;-73
2022/04/12 01:26:56;;;;;;;9.30;1.77;;;22.70;99.90;;;;;;5052097;28;19952;-73
2022/04/12 01:29:32;;;;;;;10.52;2.05;;;22.70;99.90;;;;;;5051862;28;20036;-74
2022/04/12 01:31:59;;;;;;;6.85;1.83;;;22.60;99.90;;;;;;5052086;28;20025;-74
2022/04/12 01:34:27;;;;;;;8.68;1.75;;;22.50;99.90;;;;;;5050560;28;20021;-73
2022/04/12 01:36:54;;;;;;;7.25;2.28;;;22.50;99.90;;;;;;5051905;28;20157;-73
2022/04/12 01:39:22;;;;;;;9.65;2.28;;;22.40;99.90;;;;;;5053474;28;20123;-73
2022/04/12 01:41:49;;;;;;;8.57;1.95;;;22.40;99.90;;;;;;5056205;28;20085;-74
2022/04/12 01:44:16;;;;;;;10.02;2.55;;;22.40;99.90;;;;;;5054353;28;20025;-72
2022/04/12 01:46:44;;;;;;;9.05;2.13;;;22.10;99.90;;;;;;5055640;28;20036;-73
2022/04/12 01:49:11;;;;;;;12.57;2.95;;;22.00;99.90;;;;;;5055983;28;20436;-73
2022/04/12 01:51:39;;;;;;;8.27;1.90;;;22.20;99.90;;;;;;5055591;28;20100;-74
2022/04/12 01:54:06;;;;;;;8.52;2.03;;;22.30;99.90;;;;;;5054233;28;20021;-74
2022/04/12 01:56:33;;;;;;;8.35;2.08;;;22.30;99.90;;;;;;5054293;28;20025;-73
2022/04/12 01:59:07;;;;;;;10.85;2.00;;;22.50;99.90;;;;;;5055504;28;20082;-73
2022/04/12 02:01:34;;;;;;;9.15;1.55;;;23.20;99.90;;;;;;5054284;28;20186;-74
2022/04/12 02:04:01;;;;;;;8.73;1.95;;;23.40;99.90;;;;;;5054135;28;20052;-73
2022/04/12 02:06:29;;;;;;;8.95;2.33;;;23.20;99.90;;;;;;5054139;28;20028;-74
2022/04/12 02:08:56;;;;;;;13.43;2.28;;;23.00;99.90;;;;;;5054081;28;20501;-73
2022/04/12 02:11:23;;;;;;;7.55;1.77;;;22.80;99.90;;;;;;5053925;28;20072;-73
2022/04/12 02:13:51;;;;;;;7.78;1.85;;;22.80;99.90;;;;;;5055348;28;20051;-73
2022/04/12 02:16:18;;;;;;;7.60;1.50;;;22.60;99.90;;;;;;5055261;28;20025;-73
2022/04/12 02:18:45;;;;;;;9.70;1.67;;;22.90;99.90;;;;;;5053901;28;20021;-73
2022/04/12 02:21:13;;;;;;;11.13;2.65;;;23.20;99.90;;;;;;5055242;28;20031;-73
2022/04/12 02:23:40;;;;;;;8.75;1.73;;;23.80;99.90;;;;;;5055143;28;20406;-73
2022/04/12 02:26:07;;;;;;;9.18;2.40;;;24.20;99.90;;;;;;5053786;28;20111;-72
2022/04/12 02:28:35;;;;;;;6.68;1.20;;;24.10;99.90;;;;;;5055054;28;20032;-73
2022/04/12 02:31:02;;;;;;;9.57;2.35;;;23.50;99.90;;;;;;5054839;28;20029;-72
2022/04/12 02:33:30;;;;;;;5.88;1.95;;;23.10;99.90;;;;;;5053672;28;20108;-73
2022/04/12 02:35:57;;;;;;;9.45;2.10;;;22.60;99.90;;;;;;5054882;28;20071;-73
2022/04/12 02:38:24;;;;;;;7.15;2.03;;;22.60;99.90;;;;;;5053552;28;20032;-73
2022/04/12 02:40:52;;;;;;;11.55;2.28;;;22.90;99.90;;;;;;5054742;28;20025;-73
2022/04/12 02:43:19;;;;;;;14.05;3.08;;;22.80;99.90;;;;;;5053471;28;20040;-73
2022/04/12 02:45:47;;;;;;;13.75;2.22;;;22.60;99.90;;;;;;5054615;28;20021;-73
2022/04/12 02:48:14;;;;;;;7.70;1.92;;;23.20;99.90;;;;;;5053278;28;20045;-73
2022/04/12 02:50:41;;;;;;;7.85;2.30;;;23.40;99.90;;;;;;5052214;28;20544;-73
2022/04/12 02:53:09;;;;;;;11.02;1.95;;;23.20;99.90;;;;;;5054616;28;20096;-73
2022/04/12 02:55:36;;;;;;;9.40;1.90;;;23.00;99.90;;;;;;5054487;28;20021;-72
2022/04/12 02:58:03;;;;;;;12.27;2.17;;;23.20;99.90;;;;;;5054420;28;20082;-73
2022/04/12 03:00:31;;;;;;;10.90;2.35;;;23.20;99.90;;;;;;5053148;28;20435;-72
2022/04/12 03:02:58;;;;;;;9.48;2.45;;;23.20;99.90;;;;;;5054312;28;20112;-73
2022/04/12 03:05:25;;;;;;;6.38;2.38;;;23.40;99.90;;;;;;5054327;28;20092;-74
2022/04/12 03:07:53;;;;;;;5.93;2.00;;;23.40;99.90;;;;;;5054188;28;20155;-72
2022/04/12 03:10:20;;;;;;;7.43;2.08;;;23.20;99.90;;;;;;5054195;28;20501;-74
2022/04/12 03:12:48;;;;;;;9.02;2.20;;;23.20;99.90;;;;;;5054135;28;20020;-73
2022/04/12 03:15:15;;;;;;;12.48;2.63;;;23.10;99.90;;;;;;5052839;28;20029;-72
2022/04/12 03:17:42;;;;;;;14.85;3.55;;;22.90;99.90;;;;;;5053941;28;20017;-73
2022/04/12 03:20:10;;;;;;;9.07;2.45;;;23.00;99.90;;;;;;5052709;28;20029;-73
2022/04/12 03:22:37;;;;;;;11.18;2.47;;;22.70;99.90;;;;;;5053822;28;20071;-72
2022/04/12 03:25:08;;;;;;;6.95;2.03;;;22.60;99.90;;;;;;5052438;28;20025;-72
2022/04/12 03:27:36;;;;;;;8.98;2.10;;;22.70;99.90;;;;;;5053874;28;20028;-72
2022/04/12 03:30:04;;;;;;;9.27;2.50;;;23.10;99.90;;;;;;5053771;28;20035;-72
2022/04/12 03:32:32;;;;;;;8.85;1.92;;;23.00;99.90;;;;;;5052513;28;20060;-73
2022/04/12 03:34:59;;;;;;;8.45;2.13;;;23.00;99.90;;;;;;5052531;28;20024;-73
2022/04/12 03:37:27;;;;;;;11.02;2.50;;;23.40;99.90;;;;;;5052421;28;20036;-72
2022/04/12 03:39:55;;;;;;;10.43;2.00;;;23.30;99.90;;;;;;5052339;28;20028;-72
2022/04/12 03:42:23;;;;;;;11.38;2.47;;;23.20;99.90;;;;;;5052367;28;20025;-72
2022/04/12 03:44:51;;;;;;;8.65;2.38;;;22.90;99.90;;;;;;5053606;28;20029;-72
2022/04/12 03:47:18;;;;;;;9.90;2.53;;;22.70;99.90;;;;;;5053384;28;20402;-72
2022/04/12 03:49:46;;;;;;;10.65;2.55;;;22.50;99.90;;;;;;5053354;28;20485;-72
2022/04/12 03:52:13;;;;;;;8.45;2.65;;;22.40;99.90;;;;;;5053406;28;20020;-73
2022/04/12 03:54:40;;;;;;;12.52;2.67;;;22.50;99.90;;;;;;5052121;28;20366;-73
2022/04/12 03:57:08;;;;;;;10.93;2.47;;;22.70;99.90;;;;;;5052009;28;20032;-72
2022/04/12 03:59:35;;;;;;;12.93;2.85;;;22.90;99.90;;;;;;5052050;28;20508;-72
2022/04/12 04:02:02;;;;;;;8.75;2.13;;;23.20;99.90;;;;;;5051826;28;20029;-72
2022/04/12 04:04:30;;;;;;;9.10;2.72;;;23.60;99.90;;;;;;5053172;28;20021;-72
2022/04/12 04:06:57;;;;;;;10.02;2.70;;;23.40;99.90;;;;;;5053122;28;20021;-72
2022/04/12 04:09:24;;;;;;;9.00;2.88;;;23.00;99.90;;;;;;5053071;28;20083;-73
2022/04/12 04:11:52;;;;;;;8.50;2.15;;;22.80;99.90;;;;;;5053067;28;20040;-71
2022/04/12 04:14:21;;;;;;;11.75;2.75;;;22.60;99.90;;;;;;5052971;28;20043;-71
2022/04/12 04:16:48;;;;;;;9.80;2.38;;;22.40;99.90;;;;;;5053003;28;20508;-72
2022/04/12 04:19:16;;;;;;;9.18;2.30;;;22.30;99.90;;;;;;5052821;28;20017;-72
2022/04/12 04:21:43;;;;;;;8.13;2.40;;;22.10;99.90;;;;;;5051591;28;20112;-73
2022/04/12 04:24:10;;;;;;;11.57;2.83;;;22.00;99.90;;;;;;5051554;28;20064;-73
2022/04/12 04:26:38;;;;;;;9.77;2.65;;;22.00;99.90;;;;;;5052842;28;20101;-73
2022/04/12 04:29:06;;;;;;;9.57;2.53;;;22.10;99.90;;;;;;5051439;28;20506;-73
2022/04/12 04:31:34;;;;;;;8.45;2.60;;;22.10;99.90;;;;;;5051407;28;20021;-73
2022/04/12 04:34:01;;;;;;;9.13;2.40;;;22.40;99.90;;;;;;5051363;28;20036;-73
2022/04/12 04:36:28;;;;;;;8.13;2.25;;;23.00;99.90;;;;;;5052627;28;20391;-73
2022/04/12 04:38:56;;;;;;;6.93;2.22;;;23.50;99.90;;;;;;5051197;28;20032;-72
2022/04/12 04:41:23;;;;;;;10.35;2.47;;;23.50;99.90;;;;;;5052561;28;20028;-72
2022/04/12 04:43:51;;;;;;;6.50;2.22;;;23.10;99.90;;;;;;5052393;28;20028;-72
2022/04/12 04:46:18;;;;;;;12.55;2.90;;;22.80;99.90;;;;;;5052446;28;20021;-72
2022/04/12 04:48:46;;;;;;;8.48;2.38;;;22.30;99.90;;;;;;5050902;28;20455;-72
2022/04/12 04:51:13;;;;;;;8.85;2.85;;;22.00;99.90;;;;;;5052220;28;20032;-73
2022/04/12 04:53:42;;;;;;;7.95;2.70;;;21.90;99.90;;;;;;5050879;28;20078;-73
2022/04/12 04:56:10;;;;;;;8.82;2.60;;;21.80;99.90;;;;;;5052346;28;20017;-73
2022/04/12 04:58:37;;;;;;;10.27;3.20;;;21.70;99.90;;;;;;5052296;28;20029;-73
2022/04/12 05:01:04;;;;;;;9.82;2.45;;;21.60;99.90;;;;;;5050866;28;20043;-73
2022/04/12 05:03:32;;;;;;;12.13;3.10;;;21.60;99.90;;;;;;5050758;28;20033;-73
2022/04/12 05:05:59;;;;;;;7.82;2.70;;;21.40;99.90;;;;;;5050807;28;20037;-74
2022/04/12 05:08:26;;;;;;;10.98;3.30;;;21.40;99.90;;;;;;5052301;28;20393;-72
2022/04/12 05:10:54;;;;;;;7.50;2.90;;;21.30;99.90;;;;;;5050707;28;20021;-73
2022/04/12 05:13:21;;;;;;;8.90;2.58;;;21.30;99.90;;;;;;5051520;28;20032;-73
2022/04/12 05:15:48;;;;;;;11.07;2.40;;;21.20;99.90;;;;;;5050631;28;20079;-72
2022/04/12 05:18:16;;;;;;;10.90;2.78;;;21.10;99.90;;;;;;5052177;28;20025;-72
2022/04/12 05:20:43;;;;;;;9.82;2.83;;;21.00;99.90;;;;;;5052026;28;20028;-73
2022/04/12 05:23:11;;;;;;;9.80;2.80;;;21.00;99.90;;;;;;5050774;28;20028;-73
2022/04/12 05:25:38;;;;;;;8.70;2.83;;;20.90;99.90;;;;;;5050747;28;20139;-72
2022/04/12 05:28:05;;;;;;;9.48;3.15;;;21.00;99.90;;;;;;5052006;28;20389;-72
2022/04/12 05:30:33;;;;;;;10.32;3.45;;;20.90;99.90;;;;;;5051831;28;20022;-72
2022/04/12 05:33:00;;;;;;;13.80;2.95;;;20.80;99.90;;;;;;5052049;28;20024;-72
2022/04/12 05:35:28;;;;;;;9.85;2.47;;;20.80;99.90;;;;;;5050520;28;20389;-72
2022/04/12 05:37:55;;;;;;;7.63;2.67;;;20.80;99.90;;;;;;5051818;28;20463;-72
2022/04/12 05:40:23;;;;;;;10.95;2.85;;;20.80;99.90;;;;;;5051759;28;20055;-72
2022/04/12 05:42:54;;;;;;;10.05;2.80;;;20.70;99.90;;;;;;5051685;28;20104;-72
2022/04/12 05:45:21;;;;;;;9.82;3.13;;;20.70;99.90;;;;;;5050362;28;20159;-72
2022/04/12 05:47:51;;;;;;;10.25;2.75;;;20.80;99.90;;;;;;5051488;28;20056;-72
2022/04/12 05:50:20;;;;;;;10.73;2.90;;;20.80;99.90;;;;;;5050116;28;20033;-72
2022/04/12 05:52:47;;;;;;;14.38;2.67;;;20.70;99.90;;;;;;5051557;28;20098;-72
2022/04/12 05:55:17;;;;;;;7.35;2.10;;;20.70;99.90;;;;;;5051481;28;20344;-72
2022/04/12 05:57:59;;;;;;;11.25;3.08;;;20.60;99.90;;;;;;5050063;28;20040;-73
2022/04/12 06:00:31;;;;;;;11.38;2.88;;;20.50;99.90;;;;;;5051455;28;20393;-73
2022/04/12 06:03:00;;;;;;;9.50;3.05;;;20.40;99.90;;;;;;5051858;28;20392;-72
2022/04/12 06:05:30;;;;;;;9.52;2.72;;;20.40;99.90;;;;;;5050002;28;20139;-72
2022/04/12 06:07:59;;;;;;;8.23;3.35;;;20.40;99.90;;;;;;5050322;28;20163;-72
2022/04/12 06:10:27;;;;;;;7.75;2.70;;;20.30;99.90;;;;;;5049952;28;20485;-72
2022/04/12 06:12:54;;;;;;;8.43;2.47;;;20.20;99.90;;;;;;5050034;28;20021;-72
2022/04/12 06:15:22;;;;;;;11.43;3.08;;;20.20;99.90;;;;;;5051277;28;20104;-72
2022/04/12 06:17:49;;;;;;;10.90;2.88;;;20.20;99.90;;;;;;5050008;28;20025;-72
2022/04/12 06:20:19;;;;;;;7.53;2.40;;;20.10;99.90;;;;;;5051291;28;20028;-72
2022/04/12 06:22:46;;;;;;;10.35;2.53;;;20.10;99.90;;;;;;5049794;28;20370;-72
2022/04/12 06:25:16;;;;;;;11.90;3.08;;;20.00;99.90;;;;;;5050846;28;20025;-72
2022/04/12 06:27:51;;;;;;;8.10;2.85;;;20.00;99.90;;;;;;5054837;28;20021;-72
2022/04/12 06:30:24;;;;;;;7.25;2.92;;;20.00;99.90;;;;;;5053486;28;20082;-73
2022/04/12 06:32:52;;;;;;;9.70;3.05;;;20.00;99.90;;;;;;5054637;28;20501;-73
2022/04/12 06:35:20;;;;;;;14.43;3.75;;;20.00;99.90;;;;;;5053251;28;20394;-72
2022/04/12 06:37:56;;;;;;;12.23;3.22;;;20.00;99.90;;;;;;5054617;28;20500;-72
2022/04/12 06:40:24;;;;;;;11.20;3.20;;;20.00;99.90;;;;;;5053283;28;20032;-71
2022/04/12 06:42:52;;;;;;;7.60;2.80;;;20.00;99.90;;;;;;5053276;28;20029;-72
2022/04/12 06:45:19;;;;;;;8.13;3.03;;;20.00;99.90;;;;;;5054377;28;20551;-72
2022/04/12 06:47:53;;;;;;;8.80;3.10;;;19.90;99.90;;;;;;5054110;28;20407;-73
2022/04/12 06:50:21;;;;;;;10.32;3.45;;;19.90;99.90;;;;;;5054220;28;20056;-74
2022/04/12 06:52:49;;;;;;;9.80;3.10;;;19.90;99.90;;;;;;5053009;28;20021;-73
2022/04/12 06:55:16;;;;;;;8.25;3.03;;;19.90;99.90;;;;;;5052939;28;20032;-73
2022/04/12 06:57:44;;;;;;;8.55;2.63;;;19.90;99.90;;;;;;5054036;28;20497;-72
2022/04/12 07:00:12;;;;;;;8.32;2.67;;;19.80;99.90;;;;;;5054124;28;20053;-74
2022/04/12 07:02:39;;;;;;;9.50;2.97;;;19.90;99.90;;;;;;5054143;28;20024;-73
2022/04/12 07:05:08;;;;;;;11.25;2.83;;;19.80;99.90;;;;;;5053993;28;20113;-72
2022/04/12 07:07:40;;;;;;;6.57;2.60;;;19.90;99.90;;;;;;5052681;28;20564;-72
2022/04/12 07:10:13;;;;;;;10.00;2.92;;;19.80;99.90;;;;;;5052646;28;20082;-72
2022/04/12 07:12:41;;;;;;;12.02;3.75;;;19.70;99.90;;;;;;5053843;28;20099;-72
2022/04/12 07:15:10;;;;;;;9.75;2.97;;;19.70;99.90;;;;;;5053951;28;20017;-72
2022/04/12 07:17:38;;;;;;;11.15;3.20;;;19.60;99.90;;;;;;5052503;28;20104;-72
2022/04/12 07:20:06;;;;;;;7.53;2.83;;;19.60;99.90;;;;;;5053788;28;20073;-72
2022/04/12 07:22:33;;;;;;;9.27;2.50;;;19.60;99.90;;;;;;5053701;28;20120;-73
2022/04/12 07:25:01;;;;;;;11.73;4.18;;;19.60;99.90;;;;;;5053722;28;20182;-71
2022/04/12 07:27:32;;;;;;;11.18;3.30;;;19.60;99.90;;;;;;5052206;28;20025;-71
2022/04/12 07:29:59;;;;;;;11.80;3.60;;;19.60;99.90;;;;;;5053696;28;20052;-74
2022/04/12 07:32:27;;;;;;;10.70;2.97;;;19.60;99.90;;;;;;5053432;28;20092;-73
2022/04/12 07:34:54;;;;;;;9.48;3.05;;;19.60;99.90;;;;;;5053524;28;20029;-73
2022/04/12 07:37:21;;;;;;;9.35;2.60;;;19.60;99.90;;;;;;5053028;28;20474;-71
2022/04/12 07:39:48;;;;;;;10.82;3.30;;;19.60;99.90;;;;;;5053318;28;20021;-73
2022/04/12 07:42:16;;;;;;;9.82;2.85;;;19.60;99.90;;;;;;5053286;28;20077;-72
2022/04/12 07:44:44;;;;;;;10.32;2.92;;;19.60;99.90;;;;;;5051903;28;20021;-72
2022/04/12 07:47:11;;;;;;;7.28;2.80;;;19.50;99.90;;;;;;5053059;28;20045;-72
2022/04/12 07:49:38;;;;;;;8.88;2.95;;;19.50;99.90;;;;;;5053056;28;20033;-72
2022/04/12 07:52:06;;;;;;;12.00;3.38;;;19.50;99.90;;;;;;5051865;28;20036;-72
2022/04/12 07:54:34;;;;;;;10.48;3.20;;;19.50;99.90;;;;;;5051536;28;20432;-73
2022/04/12 07:57:01;;;;;;;9.93;2.95;;;19.50;99.90;;;;;;5053272;28;20025;-72
2022/04/12 07:59:28;;;;;;;11.68;3.10;;;19.40;99.90;;;;;;5051704;28;20017;-72
2022/04/12 08:01:56;;;;;;;9.93;2.90;;;19.40;99.90;;;;;;5052914;28;20025;-72
2022/04/12 08:04:23;;;;;;;8.10;2.70;;;19.50;99.90;;;;;;5051493;28;20021;-72
2022/04/12 08:06:51;;;;;;;10.80;3.75;;;19.40;99.90;;;;;;5053042;28;20151;-72
2022/04/12 08:09:18;;;;;;;7.35;3.38;;;19.40;99.90;;;;;;5051474;28;20025;-72
2022/04/12 08:11:45;;;;;;;7.45;2.85;;;19.40;99.90;;;;;;5051626;28;20473;-73
2022/04/12 08:14:13;;;;;;;7.72;2.58;;;19.30;99.90;;;;;;5052810;28;20025;-74
2022/04/12 08:16:40;;;;;;;10.82;2.60;;;19.30;99.90;;;;;;5052776;28;20017;-73
2022/04/12 08:19:07;;;;;;;8.68;2.83;;;19.30;99.90;;;;;;5051366;28;20017;-72
2022/04/12 08:21:40;;;;;;;12.63;3.03;;;19.30;99.90;;;;;;5052674;28;20028;-73
2022/04/12 08:24:08;;;;;;;7.57;2.75;;;19.40;99.90;;;;;;5052814;28;20031;-74
2022/04/12 08:26:37;;;;;;;10.45;2.42;;;19.40;99.90;;;;;;5051296;28;20044;-73
2022/04/12 08:29:05;;;;;;;9.48;3.00;;;19.40;99.90;;;;;;5052536;28;20447;-73
2022/04/12 08:31:32;;;;;;;12.90;2.72;;;19.40;99.90;;;;;;5051005;28;20029;-73
2022/04/12 08:33:59;;;;;;;9.52;2.53;;;19.40;99.90;;;;;;5051076;28;20366;-73
2022/04/12 08:36:27;;;;;;;9.23;3.17;;;19.40;99.90;;;;;;5052355;28;20027;-73
2022/04/12 08:38:54;;;;;;;7.00;2.58;;;19.40;99.90;;;;;;5050989;28;20033;-73
2022/04/12 08:41:26;;;;;;;14.70;3.05;;;19.40;99.90;;;;;;5052299;28;20400;-73
2022/04/12 08:43:59;;;;;;;8.52;2.88;;;19.40;99.90;;;;;;5052311;28;20032;-72
2022/04/12 08:46:28;;;;;;;7.85;2.80;;;19.30;99.90;;;;;;5050927;28;20453;-73
2022/04/12 08:48:56;;;;;;;10.35;2.80;;;19.30;99.90;;;;;;5051323;28;20044;-72
2022/04/12 08:51:27;;;;;;;9.48;2.83;;;19.30;99.90;;;;;;5050874;28;20033;-71
2022/04/12 08:53:59;;;;;;;8.93;2.78;;;19.30;99.90;;;;;;5050902;28;20393;-72
2022/04/12 08:56:28;;;;;;;9.55;2.45;;;19.30;99.90;;;;;;5052214;28;20082;-71
2022/04/12 08:58:55;;;;;;;6.38;2.63;;;19.30;99.90;;;;;;5052509;28;20162;-73
2022/04/12 09:01:23;;;;;;;5.63;2.28;;;19.30;99.90;;;;;;5050829;28;20063;-74
2022/04/12 09:03:50;;;;;;;8.93;2.67;;;19.30;99.90;;;;;;5050730;28;20120;-71
2022/04/12 09:06:17;;;;;;;10.02;3.63;;;19.40;99.90;;;;;;5052090;28;20385;-73
2022/04/12 09:08:45;;;;;;;7.45;2.70;;;19.40;99.90;;;;;;5052058;28;20071;-73
2022/04/12 09:11:16;;;;;;;9.38;2.65;;;19.40;99.90;;;;;;5050731;28;20041;-75
2022/04/12 09:14:01;;;;;;;10.35;2.70;;;19.40;99.90;;;;;;5050810;28;20483;-73
2022/04/12 09:16:30;;;;;;;7.32;2.50;;;19.40;99.90;;;;;;5050822;28;20478;-74
2022/04/12 09:18:58;;;;;;;9.18;2.72;;;19.40;99.90;;;;;;5050614;28;20029;-75
2022/04/12 09:21:30;;;;;;;6.70;2.33;;;19.40;99.90;;;;;;5051939;28;20025;-76
2022/04/12 09:24:26;;;;;;;10.75;2.92;;;19.40;99.90;;;;;;5051898;28;20025;-74
2022/04/12 09:27:35;;;;;;;5.13;2.10;;;19.40;99.90;;;;;;5051754;28;20021;-73
2022/04/12 09:30:27;;;;;;;6.43;2.80;;;19.30;99.90;;;;;;5051640;28;20512;-72
2022/04/12 09:32:56;;;;;;;6.60;2.30;;;19.30;99.90;;;;;;5051520;28;20534;-74
2022/04/12 09:35:24;;;;;;;9.23;2.30;;;19.30;99.90;;;;;;5051774;28;20052;-74
2022/04/12 09:37:51;;;;;;;8.10;2.80;;;19.30;99.90;;;;;;5051729;28;20032;-74
2022/04/12 09:40:19;;;;;;;7.60;2.90;;;19.20;99.90;;;;;;5050461;28;20029;-74
2022/04/12 09:43:01;;;;;;;9.98;2.67;;;19.30;99.90;;;;;;5051794;28;20055;-73
2022/04/12 09:45:31;;;;;;;6.50;2.53;;;19.30;99.90;;;;;;5051806;28;20025;-73
2022/04/12 09:48:04;;;;;;;10.50;2.50;;;19.30;99.90;;;;;;5051534;28;20049;-73
2022/04/12 09:50:33;;;;;;;6.47;2.33;;;19.30;99.90;;;;;;5051601;28;20444;-72
2022/04/12 09:53:01;;;;;;;11.13;2.88;;;19.30;99.90;;;;;;5051536;28;20392;-74
2022/04/12 09:55:49;;;;;;;7.00;2.80;;;19.30;99.90;;;;;;5051487;28;20025;-75
2022/04/12 09:58:20;;;;;;;10.85;2.83;;;19.30;99.90;;;;;;5051358;28;20024;-74
2022/04/12 10:00:48;;;;;;;8.27;2.70;;;19.30;99.90;;;;;;5053757;28;20025;-73
2022/04/12 10:03:19;;;;;;;9.18;2.50;;;19.30;99.90;;;;;;5055404;28;20492;-74
2022/04/12 10:05:47;;;;;;;8.90;2.75;;;19.30;99.90;;;;;;5054046;28;20025;-73
2022/04/12 10:08:17;;;;;;;11.32;2.97;;;19.30;99.90;;;;;;5054290;28;20029;-75
2022/04/12 10:10:45;;;;;;;13.80;3.50;;;19.30;99.90;;;;;;5053766;28;20124;-74
2022/04/12 10:13:16;;;;;;;8.38;2.30;;;19.30;99.90;;;;;;5053781;28;20025;-73
2022/04/12 10:15:44;;;;;;;6.97;3.25;;;19.40;99.90;;;;;;5055130;28;20017;-75
2022/04/12 10:18:15;;;;;;;6.38;2.17;;;19.40;99.90;;;;;;5055083;28;20393;-73
2022/04/12 10:20:44;;;;;;;6.30;1.75;;;19.40;99.90;;;;;;5053680;28;20128;-74
2022/04/12 10:23:12;;;;;;;7.97;1.70;;;19.40;99.90;;;;;;5053475;28;20032;-73
2022/04/12 10:25:40;;;;;;;3.40;1.50;;;19.40;99.90;;;;;;5053489;28;20025;-73
2022/04/12 10:28:08;;;;;;;2.70;1.23;;;19.30;99.90;;;;;;5053490;28;20025;-72
2022/04/12 10:30:35;;;;;;;6.72;2.05;;;19.20;99.90;;;;;;5054765;28;20102;-73
2022/04/12 10:33:17;;;;;;;4.68;1.52;;;19.10;99.90;;;;;;5054786;28;20488;-72
2022/04/12 10:35:45;;;;;;;7.35;1.70;;;19.10;99.90;;;;;;5054703;28;20049;-74
2022/04/12 10:38:16;;;;;;;6.13;1.92;;;19.10;99.90;;;;;;5054714;28;20481;-73
2022/04/12 10:40:45;;;;;;;7.45;1.90;;;19.10;99.90;;;;;;5053336;28;20537;-73
2022/04/12 10:43:14;;;;;;;7.85;1.63;;;19.10;99.90;;;;;;5053327;28;20021;-72
2022/04/12 10:45:49;;;;;;;5.15;1.52;;;19.10;99.90;;;;;;5054552;28;20040;-72
2022/04/12 10:48:27;;;;;;;4.93;1.33;;;19.00;99.90;;;;;;5052981;28;20064;-73
2022/04/12 10:50:58;;;;;;;6.68;1.88;;;19.00;99.90;;;;;;5054439;28;20033;-72
2022/04/12 10:53:40;;;;;;;;;;;19.00;99.90;;;;;;5053579;28;20400;-73
2022/04/12 10:56:17;;;;;;;6.18;1.75;;;19.00;99.90;;;;;;5053051;28;19912;-72
2022/04/12 10:58:45;;;;;;;7.40;2.25;;;19.00;99.90;;;;;;5054361;28;20025;-73
2022/04/12 11:01:35;;;;;;;8.63;2.35;;;18.90;99.90;;;;;;5054263;28;20388;-73
2022/04/12 11:04:04;;;;;;;7.00;2.60;;;18.90;99.90;;;;;;5054013;28;20117;-73
2022/04/12 11:06:35;;;;;;;6.57;2.20;;;18.90;99.90;;;;;;5054148;28;20090;-72
2022/04/12 11:09:16;;;;;;;7.30;2.92;;;18.90;99.90;;;;;;5054009;28;20523;-73
2022/04/12 11:11:48;;;;;;;6.90;2.53;;;18.90;99.90;;;;;;5051793;28;20112;-73
2022/04/12 11:14:28;;;;;;;7.90;2.40;;;18.80;99.90;;;;;;5052611;28;20381;-73
2022/04/12 11:17:03;;;;;;;9.45;2.35;;;18.90;99.90;;;;;;5052734;28;20032;-72
2022/04/12 11:19:54;;;;;;;8.13;2.00;;;19.00;99.90;;;;;;5053917;28;20382;-72
2022/04/12 11:22:23;;;;;;;8.07;2.20;;;19.10;99.90;;;;;;5052533;28;20024;-72
2022/04/12 11:25:20;;;;;;;7.65;2.35;;;19.10;99.90;;;;;;5053684;28;20449;-72
2022/04/12 11:27:59;;;;;;;4.47;1.60;;;19.10;99.90;;;;;;5053317;28;20037;-72
2022/04/12 11:30:27;;;;;;;6.38;2.30;;;19.10;99.90;;;;;;5052177;28;20035;-72
2022/04/12 11:32:56;;;;;;;7.25;2.10;;;19.10;99.90;;;;;;5053491;28;20028;-72
2022/04/12 11:35:24;;;;;;;6.97;2.08;;;19.00;99.90;;;;;;5053414;28;20099;-72
2022/04/12 11:37:52;;;;;;;7.32;2.10;;;19.00;99.90;;;;;;5053394;28;20017;-72
2022/04/12 11:40:20;;;;;;;7.95;2.33;;;18.90;99.90;;;;;;5053343;28;20104;-73
2022/04/12 11:42:47;;;;;;;10.30;2.28;;;18.90;99.90;;;;;;5053306;28;20025;-72
2022/04/12 11:45:15;;;;;;;7.45;2.58;;;18.90;99.90;;;;;;5052325;28;20029;-72
2022/04/12 11:47:45;;;;;;;8.10;2.03;;;19.00;99.90;;;;;;5053020;28;20078;-72
2022/04/12 11:50:18;;;;;;;7.03;2.60;;;18.90;99.90;;;;;;5053065;28;20041;-72
2022/04/12 11:52:46;;;;;;;6.28;2.42;;;18.80;99.90;;;;;;5053204;28;20025;-72
2022/04/12 11:55:14;;;;;;;7.40;2.75;;;18.70;99.90;;;;;;5053124;28;20102;-72
2022/04/12 11:57:42;;;;;;;8.30;2.10;;;18.60;99.90;;;;;;5051880;28;20048;-72
2022/04/12 12:00:09;;;;;;;8.57;2.55;;;18.60;99.90;;;;;;5053061;28;20459;-72
2022/04/12 12:02:39;;;;;;;8.70;2.90;;;18.60;99.90;;;;;;5052929;28;20090;-72
2022/04/12 12:05:12;;;;;;;10.93;3.05;;;18.50;99.90;;;;;;5052886;28;20102;-72
2022/04/12 12:07:40;;;;;;;8.48;3.20;;;18.40;99.90;;;;;;5052968;28;20029;-72
2022/04/12 12:10:13;;;;;;;10.00;3.50;;;18.40;99.90;;;;;;5052792;28;20033;-72
2022/04/12 12:12:45;;;;;;;11.35;3.65;;;18.30;99.90;;;;;;5053181;28;20017;-72
2022/04/12 12:15:28;;;;;;;10.23;3.28;;;18.20;99.90;;;;;;5052932;28;20116;-72
2022/04/12 12:17:58;;;;;;;8.45;3.58;;;18.20;99.90;;;;;;5052782;28;20024;-72
2022/04/12 12:20:31;;;;;;;14.65;3.80;;;18.20;99.90;;;;;;5052651;28;20032;-74
2022/04/12 12:23:01;;;;;;;10.80;3.33;;;18.10;99.90;;;;;;5051332;28;20067;-72
2022/04/12 12:25:51;;;;;;;9.10;3.20;;;18.10;99.90;;;;;;5051377;28;20051;-72
2022/04/12 12:28:20;;;;;;;12.98;3.20;;;18.10;99.90;;;;;;5052685;28;20024;-72
2022/04/12 12:30:49;;;;;;;11.80;3.72;;;18.10;99.90;;;;;;5052351;28;20073;-72
2022/04/12 12:33:23;;;;;;;12.40;3.60;;;18.10;99.90;;;;;;5051172;28;20519;-73
2022/04/12 12:35:51;;;;;;;13.85;3.60;;;18.10;99.90;;;;;;5052498;28;20503;-71
2022/04/12 12:38:27;;;;;;;9.18;3.67;;;18.10;99.90;;;;;;5052320;28;20468;-72
2022/04/12 12:40:58;;;;;;;10.95;3.60;;;18.10;99.90;;;;;;5052354;28;20545;-72
2022/04/12 12:43:37;;;;;;;11.70;3.60;;;18.10;99.90;;;;;;5051042;28;20031;-72
2022/04/12 12:46:08;;;;;;;10.65;3.40;;;18.10;99.90;;;;;;5051047;28;20029;-72
2022/04/12 12:48:34;;;;;;;;;;;18.10;99.90;;;;;;5051163;28;20123;-72
2022/04/12 12:51:05;;;;;;;11.48;3.95;;;18.20;99.90;;;;;;5050828;28;19917;-72
2022/04/12 12:53:37;;;;;;;13.02;4.40;;;18.20;99.90;;;;;;5051079;28;20053;-72
2022/04/12 12:56:17;;;;;;;9.77;3.65;;;18.20;99.90;;;;;;5050825;28;20451;-72